Peytona, West Virginia
Current Conditions -  °F | °C
As of 8:54 AM on Sunday 21 Dec 2014 (Local Time) from KCRW Reporting Station
Few Clouds Few Clouds  
Wind Chill: 29°   Ceiling: Unl
Heat Index: 29°   Visibility: 10mi
Dew Point: 27°   Wind: 0mph
Humidity: 92%   Direction: NA
Pressure: 30.31"   Gusts: NA
Location:  38.14°N, 81.68°W
Report Text: KCRW 211354Z 00000KT 10SM FEW150 M02/M03 A3031 RMK AO2 SLP271 T10171028
Loading
Personal Weather Stations






























Interactive Weather Map New forecast layout! Learn more

10-Day Weather Forecast

Advertisements
Track Severe Weather on mobile